Time;durP1;ratioP1;P1;durP2;ratioP2;P2;SDS_P1;SDS_P2;PMS_P1;PMS_P2;Temp;Humidity;BMP_temperature;BMP_pressure;BME280_temperature;BME280_humidity;BME280_pressure;Samples;Min_cycle;Max_cycle;Signal;HPM_P1;HPM_P2
2022/05/22 00:00:12;;;;;;;3.60;3.30;;;20.30;49.00;;;;;;5070522;28;20950;-87
2022/05/22 00:02:43;;;;;;;3.97;3.10;;;20.30;49.00;;;;;;5057990;28;20451;-86
2022/05/22 00:05:11;;;;;;;3.67;3.33;;;20.30;49.10;;;;;;5053882;28;20562;-85
2022/05/22 00:07:38;;;;;;;3.90;3.50;;;20.30;49.20;;;;;;5072004;28;20452;-86
2022/05/22 00:10:06;;;;;;;3.23;2.93;;;20.30;49.70;;;;;;5067745;28;20453;-87
2022/05/22 00:12:33;;;;;;;3.50;3.20;;;20.20;49.90;;;;;;5088353;28;20450;-87
2022/05/22 00:15:02;;;;;;;4.00;3.60;;;20.20;50.40;;;;;;5067096;28;20817;-86
2022/05/22 00:17:29;;;;;;;3.70;3.07;;;20.20;50.70;;;;;;5068538;28;20443;-84
2022/05/22 00:19:56;;;;;;;6.10;3.70;;;20.20;50.80;;;;;;5068048;28;20459;-84
2022/05/22 00:22:23;;;;;;;3.33;3.03;;;20.20;50.70;;;;;;5053890;28;20451;-87
2022/05/22 00:24:50;;;;;;;5.73;2.83;;;20.20;50.80;;;;;;5086331;28;20557;-87
2022/05/22 00:27:17;;;;;;;3.53;3.10;;;20.20;51.00;;;;;;5086220;28;21273;-87
2022/05/22 00:29:44;;;;;;;4.87;3.90;;;20.20;50.60;;;;;;5068852;28;20447;-88
2022/05/22 00:32:12;;;;;;;4.00;2.97;;;20.20;50.40;;;;;;5071371;28;20444;-86
2022/05/22 00:34:39;;;;;;;4.43;3.70;;;20.10;50.10;;;;;;5069622;28;20468;-86
2022/05/22 00:37:06;;;;;;;8.43;2.93;;;20.00;51.20;;;;;;5058130;28;20471;-87
2022/05/22 00:39:34;;;;;;;6.23;3.23;;;19.90;50.80;;;;;;5068742;28;21075;-86
2022/05/22 00:42:02;;;;;;;3.43;3.13;;;19.90;50.70;;;;;;5072490;28;21204;-86
2022/05/22 00:44:30;;;;;;;4.13;3.13;;;19.90;50.50;;;;;;5054551;28;20470;-86
2022/05/22 00:46:57;;;;;;;3.60;3.10;;;19.90;50.30;;;;;;5081378;28;20451;-86
2022/05/22 00:49:30;;;;;;;3.23;2.93;;;19.90;50.20;;;;;;5087136;28;20520;-86
2022/05/22 00:52:02;;;;;;;3.80;3.17;;;19.90;50.10;;;;;;5062350;28;20487;-85
2022/05/22 00:54:32;;;;;;;5.00;3.17;;;19.90;50.30;;;;;;5071291;28;20478;-85
2022/05/22 00:57:06;;;;;;;6.00;3.47;;;19.90;50.30;;;;;;5070335;28;20837;-86
2022/05/22 00:59:37;;;;;;;4.10;3.27;;;19.90;50.30;;;;;;5055351;28;21164;-86
2022/05/22 01:02:06;;;;;;;3.47;3.17;;;19.90;50.40;;;;;;5079830;28;21046;-86
2022/05/22 01:04:37;;;;;;;4.97;3.67;;;19.80;50.60;;;;;;5067050;28;20468;-86
2022/05/22 01:07:06;;;;;;;3.20;2.90;;;19.80;50.70;;;;;;5074048;28;20466;-86
2022/05/22 01:09:34;;;;;;;3.40;3.10;;;19.80;51.00;;;;;;5071210;28;20488;-86
2022/05/22 01:12:13;;;;;;;3.07;2.80;;;19.80;51.20;;;;;;5054648;28;21337;-86
2022/05/22 01:14:40;;;;;;;3.53;3.20;;;19.70;50.80;;;;;;5044700;28;21355;-86
2022/05/22 01:17:10;;;;;;;3.80;3.50;;;19.70;50.40;;;;;;5075326;28;20836;-86
2022/05/22 01:19:39;;;;;;;3.50;3.20;;;19.60;50.70;;;;;;5087770;28;20546;-85
2022/05/22 01:22:12;;;;;;;3.70;3.33;;;19.50;50.80;;;;;;5072571;28;20454;-87
2022/05/22 01:24:42;;;;;;;4.53;3.13;;;19.50;50.80;;;;;;5061615;28;20469;-85
2022/05/22 01:27:14;;;;;;;3.23;2.93;;;19.20;50.70;;;;;;5087119;28;20452;-85
2022/05/22 01:29:50;;;;;;;5.50;3.03;;;19.10;51.40;;;;;;5067611;28;20449;-86
2022/05/22 01:32:19;;;;;;;5.00;3.03;;;19.10;51.00;;;;;;5077837;28;20458;-86
2022/05/22 01:34:47;;;;;;;4.00;3.20;;;19.20;51.10;;;;;;5054088;28;20499;-87
2022/05/22 01:37:17;;;;;;;3.33;2.93;;;19.20;51.10;;;;;;5049927;28;20511;-87
2022/05/22 01:39:45;;;;;;;5.30;2.90;;;19.20;50.60;;;;;;5070087;28;21242;-87
2022/05/22 01:42:12;;;;;;;4.20;3.30;;;19.20;50.50;;;;;;5054945;28;20687;-86
2022/05/22 01:44:39;;;;;;;3.50;3.20;;;19.20;50.80;;;;;;5055356;28;20951;-87
2022/05/22 01:47:08;;;;;;;3.47;3.17;;;19.20;50.70;;;;;;5072323;28;20439;-86
2022/05/22 01:49:35;;;;;;;4.30;3.37;;;19.10;50.60;;;;;;5059066;28;20455;-85
2022/05/22 01:52:03;;;;;;;3.00;2.80;;;19.10;50.40;;;;;;5087297;28;20510;-86
2022/05/22 01:54:32;;;;;;;4.30;3.20;;;19.10;50.40;;;;;;5051687;28;20594;-87
2022/05/22 01:56:59;;;;;;;3.67;3.37;;;19.10;50.60;;;;;;5055176;28;20463;-86
2022/05/22 01:59:27;;;;;;;3.47;3.20;;;19.10;50.70;;;;;;5038003;28;20452;-88
2022/05/22 02:01:58;;;;;;;3.73;2.80;;;19.00;50.40;;;;;;5055054;28;20478;-87
2022/05/22 02:04:26;;;;;;;5.47;2.77;;;19.00;50.30;;;;;;5069260;28;20535;-84
2022/05/22 02:09:40;;;;;;;3.40;3.10;;;18.90;50.60;;;;;;5061882;28;20993;-85
2022/05/22 02:12:07;;;;;;;6.37;3.13;;;18.70;51.00;;;;;;5052067;28;20543;-87
2022/05/22 02:14:35;;;;;;;2.70;2.50;;;18.60;51.40;;;;;;5085697;28;21283;-85
2022/05/22 02:17:12;;;;;;;2.53;2.33;;;18.60;51.40;;;;;;5071842;28;20805;-86
2022/05/22 02:19:49;;;;;;;3.70;2.73;;;18.60;51.40;;;;;;5077270;28;20471;-87
2022/05/22 02:22:31;;;;;;;2.93;2.60;;;18.70;51.20;;;;;;5087014;28;20916;-86
2022/05/22 02:24:59;;;;;;;2.73;2.50;;;18.70;50.80;;;;;;5067317;28;20483;-86
2022/05/22 02:27:26;;;;;;;3.90;2.70;;;18.70;50.80;;;;;;5063080;28;21020;-86
2022/05/22 02:29:53;;;;;;;3.60;3.30;;;18.50;51.30;;;;;;5072944;28;20916;-86
2022/05/22 02:32:20;;;;;;;4.63;3.13;;;18.50;50.90;;;;;;5060292;28;20978;-87
2022/05/22 02:34:47;;;;;;;4.50;3.37;;;18.50;50.80;;;;;;5071186;28;20483;-86
2022/05/22 02:37:14;;;;;;;3.87;2.83;;;18.40;51.00;;;;;;5057556;28;20456;-86
2022/05/22 02:39:41;;;;;;;4.70;2.90;;;18.40;51.30;;;;;;5061722;28;20448;-86
2022/05/22 02:42:29;;;;;;;5.20;3.23;;;18.40;51.10;;;;;;5088055;28;20939;-86
2022/05/22 02:44:56;;;;;;;5.47;3.20;;;18.40;51.00;;;;;;5077856;28;20546;-85
2022/05/22 02:47:23;;;;;;;3.33;3.00;;;18.50;50.90;;;;;;5077567;28;20950;-85
2022/05/22 02:49:51;;;;;;;3.20;3.00;;;18.40;51.10;;;;;;5051729;28;20567;-86
2022/05/22 02:52:18;;;;;;;3.13;2.90;;;18.50;51.10;;;;;;5073863;28;20555;-85
2022/05/22 02:54:45;;;;;;;3.10;2.90;;;18.20;51.80;;;;;;5039725;28;20467;-86
2022/05/22 02:57:16;;;;;;;3.37;3.07;;;18.20;51.90;;;;;;5058518;28;20550;-86
2022/05/22 02:59:50;;;;;;;4.33;3.90;;;18.20;51.90;;;;;;5044977;28;20450;-87
2022/05/22 03:02:30;;;;;;;3.50;3.20;;;17.90;52.50;;;;;;5054891;28;20522;-86
2022/05/22 03:04:58;;;;;;;4.93;3.43;;;17.70;53.30;;;;;;5080237;28;20451;-86
2022/05/22 03:07:25;;;;;;;3.60;3.30;;;17.80;52.70;;;;;;5067210;28;20954;-86
2022/05/22 03:09:54;;;;;;;3.50;3.20;;;17.80;52.40;;;;;;5065611;28;20512;-86
2022/05/22 03:12:23;;;;;;;3.40;3.10;;;17.90;52.50;;;;;;5073938;28;20455;-86
2022/05/22 03:14:59;;;;;;;3.40;3.10;;;17.90;51.90;;;;;;5050262;28;20954;-87
2022/05/22 03:17:28;;;;;;;3.80;3.50;;;17.90;51.70;;;;;;5080560;28;20435;-86
2022/05/22 03:19:57;;;;;;;3.37;2.93;;;17.90;51.70;;;;;;5053012;28;20455;-86
2022/05/22 03:22:25;;;;;;;4.90;3.23;;;17.80;51.90;;;;;;5076681;28;20480;-86
2022/05/22 03:24:52;;;;;;;3.57;3.00;;;17.80;51.30;;;;;;5060103;28;20986;-85
2022/05/22 03:27:21;;;;;;;3.27;3.03;;;17.80;51.50;;;;;;5054389;28;20454;-86
2022/05/22 03:29:52;;;;;;;3.20;2.90;;;17.80;51.70;;;;;;5064303;28;20458;-84
2022/05/22 03:32:20;;;;;;;4.83;3.10;;;17.80;52.00;;;;;;5064134;28;20460;-86
2022/05/22 03:34:49;;;;;;;5.10;3.83;;;17.80;51.80;;;;;;5056903;28;20463;-87
2022/05/22 03:37:16;;;;;;;4.13;3.77;;;17.80;51.90;;;;;;5058945;28;20462;-86
2022/05/22 03:39:43;;;;;;;6.07;3.90;;;17.80;52.60;;;;;;5078197;28;20479;-86
2022/05/22 03:42:11;;;;;;;4.63;3.23;;;17.80;52.70;;;;;;5064826;28;20455;-86
2022/05/22 03:44:39;;;;;;;3.47;3.17;;;17.80;53.00;;;;;;5080131;28;20478;-86
2022/05/22 03:47:07;;;;;;;5.43;3.33;;;17.80;53.10;;;;;;5074136;28;20976;-88
2022/05/22 03:49:45;;;;;;;4.27;3.80;;;17.80;53.00;;;;;;5081011;28;20563;-86
2022/05/22 03:52:12;;;;;;;9.83;4.73;;;17.90;53.00;;;;;;5056550;28;20439;-86
2022/05/22 03:54:39;;;;;;;5.73;5.13;;;17.60;54.80;;;;;;5063885;28;21383;-88
2022/05/22 03:57:10;;;;;;;8.60;4.30;;;17.40;55.40;;;;;;5066376;28;20923;-84
2022/05/22 03:59:39;;;;;;;4.20;3.80;;;17.50;54.80;;;;;;5071272;28;20833;-88
2022/05/22 04:02:06;;;;;;;4.57;3.87;;;17.60;54.50;;;;;;5082145;28;20463;-87
2022/05/22 04:04:34;;;;;;;4.00;3.70;;;17.70;53.90;;;;;;5061214;28;20479;-88
2022/05/22 04:07:09;;;;;;;6.07;4.83;;;17.70;53.70;;;;;;5058416;28;20443;-87
2022/05/22 04:09:36;;;;;;;4.30;3.90;;;17.70;53.60;;;;;;5089609;28;20455;-86
2022/05/22 04:12:30;;;;;;;4.43;4.00;;;17.70;53.60;;;;;;5065800;28;20443;-87
2022/05/22 04:14:57;;;;;;;5.33;3.80;;;17.70;53.70;;;;;;5061640;28;20524;-86
2022/05/22 04:17:24;;;;;;;4.83;4.10;;;17.50;54.10;;;;;;5083053;28;20452;-87
2022/05/22 04:19:52;;;;;;;5.23;4.20;;;17.10;55.00;;;;;;5055962;28;20443;-87
2022/05/22 04:22:21;;;;;;;4.87;4.00;;;17.30;55.10;;;;;;5056141;28;21193;-87
2022/05/22 04:27:38;;;;;;;5.90;3.60;;;17.50;55.00;;;;;;5057763;28;20962;-87
2022/05/22 04:30:07;;;;;;;4.57;3.80;;;17.70;54.70;;;;;;5055676;28;20440;-87
2022/05/22 04:32:43;;;;;;;3.93;3.00;;;17.80;54.70;;;;;;5082662;28;20527;-86
2022/05/22 04:35:11;;;;;;;4.87;4.00;;;17.90;54.40;;;;;;5062075;28;20578;-88
2022/05/22 04:37:40;;;;;;;5.53;4.90;;;17.90;54.00;;;;;;5074887;28;21252;-86
2022/05/22 04:40:09;;;;;;;5.63;5.03;;;17.80;54.10;;;;;;5073122;28;20447;-86
2022/05/22 04:42:38;;;;;;;9.90;5.00;;;17.90;54.10;;;;;;5057400;28;20455;-86
2022/05/22 04:45:08;;;;;;;9.33;5.83;;;17.90;54.30;;;;;;5063589;28;20582;-87
2022/05/22 04:47:43;;;;;;;8.33;7.23;;;17.90;54.10;;;;;;5075380;28;20528;-87
2022/05/22 04:50:17;;;;;;;11.00;6.50;;;18.00;53.90;;;;;;5071606;28;20457;-86
2022/05/22 04:53:03;;;;;;;9.20;6.83;;;18.00;53.80;;;;;;5091921;28;21088;-85
2022/05/22 04:55:42;;;;;;;10.47;6.80;;;18.00;54.00;;;;;;5057932;28;21005;-86
2022/05/22 04:58:13;;;;;;;10.77;6.77;;;18.10;54.20;;;;;;5054961;28;21046;-88
2022/05/22 05:00:41;;;;;;;15.93;7.30;;;18.10;54.00;;;;;;5073062;28;20538;-86
2022/05/22 05:03:11;;;;;;;13.33;7.53;;;18.00;54.40;;;;;;5057722;28;20440;-86
2022/05/22 05:05:39;;;;;;;11.97;6.80;;;18.00;54.30;;;;;;5069266;28;20477;-86
2022/05/22 05:08:08;;;;;;;12.07;7.67;;;18.00;54.30;;;;;;5076725;28;20481;-86
2022/05/22 05:10:55;;;;;;;8.03;7.03;;;18.10;54.30;;;;;;5016873;28;20511;-85
2022/05/22 05:13:28;;;;;;;10.53;7.10;;;18.10;54.00;;;;;;5071532;28;20442;-86
2022/05/22 05:16:01;;;;;;;11.17;7.10;;;18.10;54.00;;;;;;5056499;28;20471;-85
2022/05/22 05:18:35;;;;;;;10.10;6.43;;;18.20;54.20;;;;;;5063427;28;20447;-87
2022/05/22 05:21:06;;;;;;;10.87;7.13;;;18.20;54.30;;;;;;5046692;28;20475;-86
2022/05/22 05:23:35;;;;;;;8.60;6.27;;;18.30;54.20;;;;;;5060280;28;20495;-86
2022/05/22 05:26:22;;;;;;;9.43;6.10;;;18.20;54.10;;;;;;5086972;28;20444;-87
2022/05/22 05:28:51;;;;;;;7.13;5.80;;;18.00;54.50;;;;;;5050985;28;20874;-85
2022/05/22 05:31:27;;;;;;;11.10;5.93;;;18.00;54.90;;;;;;5040365;28;20446;-87
2022/05/22 05:33:54;;;;;;;7.33;6.00;;;18.10;55.10;;;;;;5044460;28;20461;-85
2022/05/22 05:36:28;;;;;;;7.87;6.67;;;18.20;55.00;;;;;;5062073;28;20471;-86
2022/05/22 05:38:59;;;;;;;10.63;6.33;;;18.40;54.60;;;;;;5053704;28;20440;-87
2022/05/22 05:41:41;;;;;;;10.07;6.10;;;18.30;54.90;;;;;;5080671;28;20449;-85
2022/05/22 05:44:08;;;;;;;7.40;6.10;;;18.50;54.80;;;;;;5061668;28;20451;-85
2022/05/22 05:46:47;;;;;;;8.53;5.70;;;18.70;54.40;;;;;;5046466;28;20451;-87
2022/05/22 05:49:14;;;;;;;11.57;5.90;;;18.80;54.50;;;;;;5056921;28;20464;-86
2022/05/22 05:51:44;;;;;;;13.40;6.53;;;18.90;53.90;;;;;;5068417;28;20439;-85
2022/05/22 05:54:13;;;;;;;14.50;5.33;;;18.80;54.90;;;;;;5051138;28;21059;-86
2022/05/22 05:56:59;;;;;;;6.00;5.23;;;18.60;54.40;;;;;;5076594;28;20458;-85
2022/05/22 05:59:33;;;;;;;10.37;5.20;;;18.60;55.00;;;;;;5055258;28;20443;-86
2022/05/22 06:02:21;;;;;;;8.00;4.63;;;18.70;54.70;;;;;;5066841;28;20922;-87
2022/05/22 06:04:48;;;;;;;7.30;4.90;;;18.60;54.40;;;;;;5040466;28;20475;-87
2022/05/22 06:07:15;;;;;;;5.03;4.30;;;18.50;54.20;;;;;;5086089;28;20453;-85
2022/05/22 06:09:43;;;;;;;5.87;4.30;;;18.50;54.50;;;;;;5075415;28;20467;-86
2022/05/22 06:12:36;;;;;;;5.53;4.40;;;18.50;55.40;;;;;;5060403;28;21115;-88
2022/05/22 06:15:08;;;;;;;4.70;4.30;;;18.50;55.00;;;;;;5033842;28;20633;-87
2022/05/22 06:17:38;;;;;;;8.03;3.97;;;18.50;54.80;;;;;;5053083;28;21212;-85
2022/05/22 06:20:09;;;;;;;5.90;4.57;;;18.70;54.80;;;;;;5055743;28;20444;-87
2022/05/22 06:22:42;;;;;;;10.27;4.00;;;18.70;54.80;;;;;;5049038;28;21038;-87
2022/05/22 06:25:33;;;;;;;7.47;4.87;;;18.80;54.90;;;;;;5064128;28;20459;-85
2022/05/22 06:28:36;;;;;;;7.20;4.23;;;19.10;54.80;;;;;;5010945;28;20465;-87
2022/05/22 06:31:04;;;;;;;4.27;3.57;;;19.20;53.90;;;;;;5049822;28;20451;-85
2022/05/22 06:34:01;;;;;;;6.10;4.50;;;19.30;53.50;;;;;;5055061;28;20449;-85
2022/05/22 06:36:27;;;;;;;4.33;3.43;;;19.70;53.70;;;;;;5066286;28;21060;-86
2022/05/22 06:42:17;;;;;;;5.37;4.20;;;19.70;53.40;;;;;;5047217;28;20479;-86
2022/05/22 06:44:59;;;;;;;5.00;3.97;;;19.80;54.10;;;;;;5065832;28;20467;-86
2022/05/22 06:47:39;;;;;;;8.70;3.97;;;19.90;53.70;;;;;;5085693;28;20507;-86
2022/05/22 06:50:22;;;;;;;6.80;4.00;;;19.80;53.60;;;;;;5065180;28;20962;-87
2022/05/22 06:52:59;;;;;;;6.70;4.10;;;19.80;53.90;;;;;;5066432;28;20454;-88
2022/05/22 06:55:48;;;;;;;4.10;3.37;;;20.00;53.60;;;;;;5046866;28;20474;-86
2022/05/22 06:58:36;;;;;;;6.10;4.00;;;20.50;52.60;;;;;;5058227;28;20468;-84
2022/05/22 07:01:29;;;;;;;5.80;3.30;;;20.30;53.10;;;;;;5059121;28;20462;-85
2022/05/22 07:04:14;;;;;;;5.40;3.83;;;20.30;53.20;;;;;;5082193;28;21316;-85
2022/05/22 07:06:47;;;;;;;3.47;3.10;;;20.30;53.10;;;;;;5050892;28;20455;-85
2022/05/22 07:09:32;;;;;;;7.87;3.60;;;20.50;53.10;;;;;;5083418;28;20435;-84
2022/05/22 07:12:08;;;;;;;12.60;3.67;;;20.60;52.80;;;;;;5044804;28;20535;-85
2022/05/22 07:14:39;;;;;;;4.80;3.50;;;20.60;52.70;;;;;;5083385;28;20466;-85
2022/05/22 07:17:21;;;;;;;8.77;3.30;;;20.70;53.00;;;;;;5067021;28;20529;-86
2022/05/22 07:20:10;;;;;;;4.00;3.70;;;20.70;52.70;;;;;;5049359;28;20458;-85
2022/05/22 07:22:43;;;;;;;8.33;3.43;;;20.80;53.70;;;;;;5069185;28;20512;-85
2022/05/22 07:25:34;;;;;;;7.10;3.20;;;20.90;52.40;;;;;;5058522;28;20468;-87
2022/05/22 07:28:19;;;;;;;5.47;3.20;;;21.30;52.40;;;;;;5065723;28;20453;-86
2022/05/22 07:31:01;;;;;;;5.10;3.60;;;21.60;51.40;;;;;;5057121;28;20444;-86
2022/05/22 07:33:43;;;;;;;5.93;3.43;;;21.70;51.60;;;;;;5065704;28;20474;-84
2022/05/22 07:36:29;;;;;;;4.90;3.20;;;21.70;51.30;;;;;;5086743;28;20540;-85
2022/05/22 07:39:23;;;;;;;5.87;3.10;;;21.90;50.90;;;;;;5056638;28;20501;-85
2022/05/22 07:42:09;;;;;;;3.73;3.17;;;21.90;50.50;;;;;;5055309;28;20440;-84
2022/05/22 07:45:15;;;;;;;4.93;2.97;;;22.00;50.20;;;;;;5052824;28;20467;-86
2022/05/22 07:48:04;;;;;;;5.17;3.23;;;22.20;51.30;;;;;;5069934;28;20864;-86
2022/05/22 07:50:38;;;;;;;3.93;2.87;;;22.20;50.50;;;;;;5063224;28;20454;-86
2022/05/22 07:53:24;;;;;;;2.93;2.63;;;22.30;50.20;;;;;;5070487;28;20447;-86
2022/05/22 07:56:21;;;;;;;5.00;2.60;;;22.30;49.80;;;;;;5049790;28;20479;-87
2022/05/22 07:59:08;;;;;;;3.23;2.53;;;22.60;49.90;;;;;;5068968;28;20451;-87
2022/05/22 08:01:50;;;;;;;5.17;2.93;;;22.80;49.20;;;;;;5079775;28;20551;-87
2022/05/22 08:04:19;;;;;;;2.60;2.20;;;23.20;47.60;;;;;;5086917;28;20466;-87
2022/05/22 08:07:09;;;;;;;2.60;2.40;;;23.50;46.30;;;;;;5067479;28;20447;-86
2022/05/22 08:10:06;;;;;;;3.10;2.30;;;23.30;44.50;;;;;;5045392;28;20447;-87
2022/05/22 08:12:36;;;;;;;5.60;2.27;;;23.30;45.40;;;;;;5061721;28;20448;-86
2022/05/22 08:15:13;;;;;;;3.90;2.20;;;23.40;45.60;;;;;;5050476;28;20463;-87
2022/05/22 08:17:40;;;;;;;4.53;2.43;;;23.60;44.90;;;;;;5044474;28;20542;-86
2022/05/22 08:20:12;;;;;;;2.57;2.33;;;23.60;43.30;;;;;;5049903;28;21101;-86
2022/05/22 08:23:04;;;;;;;2.20;2.00;;;23.80;44.00;;;;;;5069640;28;20455;-86
2022/05/22 08:25:51;;;;;;;2.30;1.83;;;23.90;43.70;;;;;;5088256;28;20467;-86
2022/05/22 08:28:19;;;;;;;3.00;1.70;;;24.10;42.40;;;;;;5071831;28;20489;-87
2022/05/22 08:30:46;;;;;;;6.07;2.70;;;24.10;42.70;;;;;;5087583;28;20456;-86
2022/05/22 08:33:14;;;;;;;2.70;2.07;;;24.40;42.50;;;;;;5062547;28;20940;-87
2022/05/22 08:35:44;;;;;;;4.00;1.90;;;24.50;41.30;;;;;;5070991;28;20761;-86
2022/05/22 08:38:11;;;;;;;6.67;2.20;;;24.60;41.30;;;;;;5073426;28;20546;-87
2022/05/22 08:40:47;;;;;;;2.10;1.90;;;24.80;40.60;;;;;;5090649;28;20463;-87
2022/05/22 08:43:16;;;;;;;3.67;2.33;;;24.60;40.50;;;;;;5073225;28;20535;-88
2022/05/22 08:45:45;;;;;;;2.00;1.70;;;24.40;39.60;;;;;;5089275;28;20505;-86
2022/05/22 08:48:19;;;;;;;2.80;1.80;;;24.40;40.00;;;;;;5089169;28;20970;-86
2022/05/22 08:50:49;;;;;;;5.23;2.20;;;24.50;40.80;;;;;;5072524;28;20451;-85
2022/05/22 08:53:22;;;;;;;3.53;2.10;;;24.90;40.30;;;;;;5081218;28;20455;-87
2022/05/22 08:58:58;;;;;;;2.20;1.93;;;25.10;39.20;;;;;;5048337;28;20528;-87
2022/05/22 09:01:34;;;;;;;1.70;1.60;;;25.30;39.00;;;;;;5065118;28;20455;-87
2022/05/22 09:04:11;;;;;;;2.63;1.70;;;25.20;38.40;;;;;;5062794;28;20562;-87
2022/05/22 09:06:43;;;;;;;3.53;2.03;;;25.30;38.50;;;;;;5058550;28;20439;-87
2022/05/22 09:09:10;;;;;;;4.70;2.10;;;25.50;37.60;;;;;;5088197;28;20943;-87
2022/05/22 09:11:55;;;;;;;6.17;2.13;;;25.80;37.70;;;;;;5054575;28;20458;-87
2022/05/22 09:14:27;;;;;;;1.97;1.87;;;26.10;38.90;;;;;;5070596;28;20483;-87
2022/05/22 09:17:01;;;;;;;3.73;2.00;;;26.40;37.60;;;;;;5088186;28;20589;-85
2022/05/22 09:19:38;;;;;;;3.90;1.83;;;26.40;36.70;;;;;;5089302;28;20454;-86
2022/05/22 09:22:21;;;;;;;1.50;1.40;;;26.40;37.10;;;;;;5047404;28;20520;-86
2022/05/22 09:24:59;;;;;;;2.07;1.87;;;26.60;37.20;;;;;;5070218;28;20820;-87
2022/05/22 09:27:33;;;;;;;2.13;1.93;;;26.80;36.60;;;;;;5093274;28;20451;-86
2022/05/22 09:30:06;;;;;;;2.40;1.70;;;26.70;36.30;;;;;;5044460;28;20454;-87
2022/05/22 09:32:49;;;;;;;1.97;1.77;;;26.50;36.40;;;;;;5063254;28;20435;-86
2022/05/22 09:35:25;;;;;;;4.27;1.97;;;26.30;37.50;;;;;;5088442;28;21073;-85
2022/05/22 09:38:07;;;;;;;3.90;2.13;;;26.30;37.60;;;;;;5091364;28;20486;-87
2022/05/22 09:40:44;;;;;;;4.43;3.27;;;26.00;35.20;;;;;;5069653;28;20443;-87
2022/05/22 09:43:35;;;;;;;3.87;2.70;;;25.90;37.10;;;;;;5072003;28;20434;-85
2022/05/22 09:46:21;;;;;;;2.70;2.03;;;25.80;36.80;;;;;;5071275;28;20478;-87
2022/05/22 09:49:02;;;;;;;1.97;1.87;;;25.70;36.20;;;;;;5054884;28;20457;-87
2022/05/22 09:51:39;;;;;;;2.30;1.83;;;25.70;37.20;;;;;;5069300;28;20462;-87
2022/05/22 09:54:28;;;;;;;2.67;2.00;;;25.80;36.50;;;;;;5071848;28;20454;-88
2022/05/22 09:57:07;;;;;;;2.73;1.80;;;25.80;35.90;;;;;;5073864;28;20455;-87
2022/05/22 10:00:07;;;;;;;3.43;2.00;;;26.20;36.50;;;;;;5071144;28;20435;-88
2022/05/22 10:02:48;;;;;;;2.53;1.80;;;26.50;35.00;;;;;;5070654;28;20443;-88
2022/05/22 10:05:30;;;;;;;2.53;1.70;;;26.80;35.90;;;;;;5054205;28;20482;-86
2022/05/22 10:08:06;;;;;;;2.70;2.30;;;26.80;33.50;;;;;;5075174;28;20469;-87
2022/05/22 10:10:41;;;;;;;2.17;1.60;;;26.70;35.40;;;;;;5090555;28;20531;-88
2022/05/22 10:13:16;;;;;;;2.83;2.27;;;26.90;36.70;;;;;;5071468;28;20451;-87
2022/05/22 10:15:53;;;;;;;1.80;1.70;;;26.60;33.20;;;;;;5042236;28;20471;-87
2022/05/22 10:18:33;;;;;;;3.77;1.80;;;26.90;34.90;;;;;;5053146;28;20452;-87
2022/05/22 10:21:14;;;;;;;3.30;2.87;;;27.20;34.20;;;;;;5087908;28;20458;-87
2022/05/22 10:23:55;;;;;;;2.77;1.70;;;27.70;34.80;;;;;;5090127;28;21513;-89
2022/05/22 10:26:33;;;;;;;1.90;1.70;;;28.10;32.50;;;;;;5070730;28;20475;-86
2022/05/22 10:29:06;;;;;;;4.77;3.70;;;27.80;31.10;;;;;;5088030;28;20439;-87
2022/05/22 10:31:40;;;;;;;3.93;2.93;;;28.10;32.70;;;;;;5070869;28;20800;-87
2022/05/22 10:34:15;;;;;;;2.73;2.07;;;27.90;33.10;;;;;;5088685;28;20446;-88
2022/05/22 10:36:46;;;;;;;7.30;5.90;;;28.10;31.60;;;;;;5090175;28;21040;-87
2022/05/22 10:39:15;;;;;;;2.40;2.20;;;28.60;32.50;;;;;;5088213;28;20486;-87
2022/05/22 10:44:38;;;;;;;2.73;1.90;;;29.00;30.60;;;;;;5087677;28;20482;-88
2022/05/22 10:47:05;;;;;;;2.80;1.80;;;28.90;30.20;;;;;;5090573;28;20439;-87
2022/05/22 10:49:38;;;;;;;4.10;2.30;;;28.80;30.70;;;;;;5067320;28;20450;-87
2022/05/22 10:52:07;;;;;;;6.73;2.10;;;28.90;31.70;;;;;;5070586;28;20546;-87
2022/05/22 10:54:43;;;;;;;2.00;1.80;;;29.30;29.90;;;;;;5067592;28;20475;-88
2022/05/22 10:57:14;;;;;;;2.13;1.60;;;29.10;28.90;;;;;;5070100;28;20466;-89
2022/05/22 10:59:42;;;;;;;2.30;1.67;;;28.80;29.80;;;;;;5054778;28;21069;-87
2022/05/22 11:02:18;;;;;;;1.60;1.50;;;28.50;30.30;;;;;;5089448;28;20458;-87
2022/05/22 11:04:48;;;;;;;2.50;1.73;;;28.20;29.90;;;;;;5088531;28;20798;-89
2022/05/22 11:07:28;;;;;;;1.60;1.50;;;27.90;30.70;;;;;;5070309;28;20958;-87
2022/05/22 11:09:57;;;;;;;2.47;1.50;;;27.60;30.60;;;;;;5058275;28;20446;-88
2022/05/22 11:12:27;;;;;;;2.20;2.00;;;27.20;30.40;;;;;;5092256;28;20435;-87
2022/05/22 11:15:05;;;;;;;2.13;1.83;;;27.50;31.50;;;;;;5092128;28;20471;-87
2022/05/22 11:17:32;;;;;;;2.90;1.70;;;28.10;31.80;;;;;;5073086;28;20466;-88
2022/05/22 11:20:10;;;;;;;3.13;1.97;;;28.30;31.60;;;;;;5074912;28;20931;-89
2022/05/22 11:22:43;;;;;;;2.13;1.40;;;28.70;30.20;;;;;;5074094;28;20439;-87
2022/05/22 11:25:28;;;;;;;2.90;1.60;;;29.20;30.00;;;;;;5067382;28;20451;-90
2022/05/22 11:28:13;;;;;;;1.50;1.40;;;28.90;28.80;;;;;;5060571;28;20539;-87
2022/05/22 11:30:49;;;;;;;2.90;1.60;;;28.60;29.40;;;;;;5059696;28;21187;-88
2022/05/22 11:33:37;;;;;;;2.37;1.67;;;28.50;30.20;;;;;;5076742;28;20806;-86
2022/05/22 11:36:16;;;;;;;2.00;1.80;;;28.30;29.80;;;;;;5088935;28;21135;-89
2022/05/22 11:38:55;;;;;;;2.07;1.73;;;28.40;31.00;;;;;;5093044;28;20562;-89
2022/05/22 11:41:27;;;;;;;2.07;1.80;;;28.70;30.70;;;;;;5083911;28;20447;-86
2022/05/22 11:44:38;;;;;;;2.50;1.90;;;28.90;29.20;;;;;;5043332;28;20464;-88
2022/05/22 11:47:22;;;;;;;2.00;1.80;;;28.50;29.10;;;;;;5054887;28;20444;-88
2022/05/22 11:49:59;;;;;;;1.73;1.60;;;28.30;29.20;;;;;;5078792;28;20449;-89
2022/05/22 11:52:54;;;;;;;1.57;1.43;;;28.20;28.70;;;;;;5084531;28;20461;-89
2022/05/22 11:55:29;;;;;;;1.70;1.50;;;28.30;28.90;;;;;;5074115;28;20467;-88
2022/05/22 11:58:26;;;;;;;1.53;1.43;;;28.50;29.30;;;;;;5073922;28;21389;-85
2022/05/22 12:01:11;;;;;;;2.47;1.50;;;29.10;28.20;;;;;;5070764;28;20444;-89
2022/05/22 12:03:56;;;;;;;3.10;1.53;;;29.10;28.50;;;;;;5092295;28;20501;-88
2022/05/22 12:06:42;;;;;;;1.50;1.40;;;28.90;28.70;;;;;;5074409;28;20493;-88
2022/05/22 12:09:22;;;;;;;2.10;1.80;;;29.00;28.90;;;;;;5072813;28;21072;-88
2022/05/22 12:12:02;;;;;;;2.33;1.43;;;29.20;28.80;;;;;;5064423;28;20455;-89
2022/05/22 12:14:38;;;;;;;3.67;2.10;;;28.70;28.50;;;;;;5071788;28;20459;-86
2022/05/22 12:17:16;;;;;;;2.80;2.60;;;28.50;29.30;;;;;;5077352;28;20455;-87
2022/05/22 12:19:50;;;;;;;2.00;1.70;;;28.80;28.80;;;;;;5075901;28;20953;-88
2022/05/22 12:22:20;;;;;;;2.30;1.50;;;29.10;28.50;;;;;;5074455;28;20451;-87
2022/05/22 12:24:55;;;;;;;1.83;1.47;;;29.10;28.20;;;;;;5074828;28;20472;-87
2022/05/22 12:27:25;;;;;;;3.03;1.63;;;29.30;28.10;;;;;;5090239;28;20446;-87
2022/05/22 12:30:14;;;;;;;2.10;1.93;;;29.60;28.40;;;;;;5075473;28;20456;-86
2022/05/22 12:32:46;;;;;;;1.80;1.63;;;29.70;27.30;;;;;;5042119;28;20447;-88
2022/05/22 12:35:14;;;;;;;3.00;1.90;;;29.80;28.50;;;;;;5066245;28;20475;-86
2022/05/22 12:37:45;;;;;;;1.80;1.70;;;30.00;27.50;;;;;;5074172;28;20466;-88
2022/05/22 12:40:24;;;;;;;2.10;1.60;;;29.90;27.60;;;;;;5088133;28;20455;-88
2022/05/22 12:42:55;;;;;;;3.57;2.20;;;30.30;27.60;;;;;;5051924;28;20481;-88
2022/05/22 12:45:24;;;;;;;1.77;1.67;;;30.20;27.10;;;;;;5088932;28;20463;-87
2022/05/22 12:48:09;;;;;;;2.13;1.60;;;30.30;27.60;;;;;;5073673;28;20446;-87
2022/05/22 12:50:45;;;;;;;2.30;1.90;;;30.40;26.80;;;;;;5041471;28;20850;-87
2022/05/22 12:53:20;;;;;;;2.80;1.40;;;30.80;27.10;;;;;;5070059;28;20450;-87
2022/05/22 12:55:47;;;;;;;1.77;1.47;;;31.00;27.30;;;;;;5063212;28;20496;-88
2022/05/22 12:58:32;;;;;;;4.60;1.67;;;31.00;27.20;;;;;;5054164;28;20498;-88
2022/05/22 13:00:59;;;;;;;1.60;1.50;;;31.20;26.90;;;;;;5088865;28;21390;-87
2022/05/22 13:03:35;;;;;;;2.47;1.43;;;31.30;26.30;;;;;;5071702;28;20456;-87
2022/05/22 13:06:06;;;;;;;1.93;1.80;;;31.10;24.90;;;;;;5087700;28;20509;-88
2022/05/22 13:08:42;;;;;;;2.47;1.60;;;30.90;26.20;;;;;;5083925;28;20447;-86
2022/05/22 13:11:13;;;;;;;1.80;1.43;;;31.00;26.60;;;;;;5073140;28;21139;-86
2022/05/22 13:13:48;;;;;;;2.17;1.63;;;30.90;27.00;;;;;;5081217;28;20525;-87
2022/05/22 13:16:25;;;;;;;1.73;1.60;;;30.90;26.70;;;;;;5056915;28;20461;-88
2022/05/22 13:18:55;;;;;;;1.80;1.60;;;30.60;26.50;;;;;;5080650;28;21357;-85
2022/05/22 13:21:33;;;;;;;3.33;2.10;;;30.50;27.50;;;;;;5070531;28;20448;-86
2022/05/22 13:24:05;;;;;;;4.57;1.80;;;30.60;26.80;;;;;;5085242;28;20490;-87
2022/05/22 13:26:33;;;;;;;2.60;1.60;;;30.80;27.20;;;;;;5087472;28;20447;-85
2022/05/22 13:29:07;;;;;;;3.60;1.40;;;30.90;25.80;;;;;;5065691;28;21084;-87
2022/05/22 13:31:41;;;;;;;2.70;1.60;;;30.60;25.80;;;;;;5067523;28;20443;-87
2022/05/22 13:34:21;;;;;;;2.70;1.90;;;30.70;26.20;;;;;;5064546;28;20456;-86
2022/05/22 13:36:53;;;;;;;4.20;1.30;;;30.90;26.50;;;;;;5061380;28;20458;-86